Time;durP1;ratioP1;P1;durP2;ratioP2;P2;SDS_P1;SDS_P2;PMS_P1;PMS_P2;Temp;Humidity;BMP_temperature;BMP_pressure;BME280_temperature;BME280_humidity;BME280_pressure;Samples;Min_cycle;Max_cycle;Signal;HPM_P1;HPM_P2
2022/10/26 00:02:12;;;;;;;;;;;;;;;-144.47;100.00;61586.06;4953576;28;19973;-79
2022/10/26 00:04:37;;;;;;;;;;;;;;;-144.47;100.00;61586.06;4953750;28;20040;-79
2022/10/26 00:07:03;;;;;;;;;;;;;;;-144.47;100.00;61586.06;4941070;29;19970;-79
2022/10/26 00:09:28;;;;;;;;;;;;;;;-144.47;100.00;61586.06;4952982;28;19953;-78
2022/10/26 00:11:53;;;;;;;;;;;;;;;-144.47;100.00;61586.06;4953700;28;19918;-79
2022/10/26 00:14:19;;;;;;;;;;;;;;;-144.47;100.00;61586.06;4953433;28;19919;-79
2022/10/26 00:16:44;;;;;;;;;;;;;;;-144.47;100.00;61586.06;4953510;28;20378;-78
2022/10/26 00:19:09;;;;;;;;;;;;;;;-144.47;100.00;61586.06;4941834;29;19918;-77
2022/10/26 00:21:35;;;;;;;;;;;;;;;-144.47;100.00;61586.06;4941825;29;19919;-79
2022/10/26 00:24:00;;;;;;;;;;;;;;;-144.47;100.00;61586.06;4953354;28;19925;-77
2022/10/26 00:26:25;;;;;;;;;;;;;;;-144.47;100.00;61586.06;4953222;28;19969;-78
2022/10/26 00:28:55;;;;;;;;;;;;;;;-144.47;100.00;61586.06;4953470;28;19919;-78
2022/10/26 00:31:21;;;;;;;;;;;;;;;-144.47;100.00;61586.06;4953232;28;19966;-79
2022/10/26 00:33:47;;;;;;;;;;;;;;;-144.47;100.00;61586.06;4953353;28;19918;-77
2022/10/26 00:36:15;;;;;;;;;;;;;;;-144.47;100.00;61586.06;4953491;28;20409;-79
2022/10/26 00:38:44;;;;;;;;;;;;;;;-144.47;100.00;61586.06;4953419;28;20398;-79
2022/10/26 00:41:17;;;;;;;;;;;;;;;-144.47;100.00;61586.06;4952757;28;19925;-78
2022/10/26 00:43:43;;;;;;;;;;;;;;;-144.47;100.00;61586.06;4953306;28;19925;-78
2022/10/26 00:46:10;;;;;;;;;;;;;;;-144.47;100.00;61586.06;4940965;28;19922;-78
2022/10/26 00:48:39;;;;;;;;;;;;;;;-144.47;100.00;61586.06;4952832;28;19918;-79
2022/10/26 00:51:09;;;;;;;;;;;;;;;-144.47;100.00;61586.06;4950260;28;19973;-77
2022/10/26 00:53:34;;;;;;;;;;;;;;;-144.47;100.00;61586.06;4956818;28;20017;-79
2022/10/26 00:56:01;;;;;;;;;;;;;;;-144.47;100.00;61586.06;4957311;28;20461;-77
2022/10/26 00:58:26;;;;;;;;;;;;;;;-144.47;100.00;61586.06;4956800;28;19954;-78
2022/10/26 01:00:52;;;;;;;;;;;;;;;-144.47;100.00;61586.06;4957077;28;20008;-79
2022/10/26 01:03:17;;;;;;;;;;;;;;;-144.47;100.00;61586.06;4956664;28;19926;-79
2022/10/26 01:05:44;;;;;;;;;;;;;;;-144.47;100.00;61586.06;4957500;28;19966;-79
2022/10/26 01:08:10;;;;;;;;;;;;;;;-144.47;100.00;61586.06;4957088;28;19925;-79
2022/10/26 01:10:36;;;;;;;;;;;;;;;-144.47;100.00;61586.06;4956672;28;19997;-79
2022/10/26 01:13:02;;;;;;;;;;;;;;;-144.47;100.00;61586.06;4956613;28;19965;-79
2022/10/26 01:15:37;;;;;;;;;;;;;;;-144.47;100.00;61586.06;4956162;28;20013;-79
2022/10/26 01:18:09;;;;;;;;;;;;;;;-144.47;100.00;61586.06;4956872;28;19919;-79
2022/10/26 01:20:40;;;;;;;;;;;;;;;-144.47;100.00;61586.06;4952916;28;20710;-79
2022/10/26 01:23:38;;;;;;;;;;;;;;;-144.47;100.00;61586.06;4955357;28;19925;-79
2022/10/26 01:26:09;;;;;;;;;;;;;;;-144.47;100.00;61586.06;4923767;28;19981;-79
2022/10/26 01:29:04;;;;;;;;;;;;;;;-144.47;100.00;61586.06;4952278;28;19930;-79
2022/10/26 01:31:33;;;;;;;;;;;;;;;-144.47;100.00;61586.06;4954988;28;19973;-78
2022/10/26 01:34:01;;;;;;;;;;;;;;;-144.47;100.00;61586.06;4956039;28;20007;-80
2022/10/26 01:36:33;;;;;;;;;;;;;;;-144.47;100.00;61586.06;4956532;28;20429;-79
2022/10/26 01:39:15;;;;;;;;;;;;;;;-144.47;100.00;61586.06;4956561;28;19926;-79
2022/10/26 01:41:50;;;;;;;;;;;;;;;-144.47;100.00;61586.06;4956353;28;19925;-79
2022/10/26 01:44:19;;;;;;;;;;;;;;;-144.47;100.00;61586.06;4955910;28;19925;-79
2022/10/26 01:46:45;;;;;;;;;;;;;;;-144.47;100.00;61586.06;4956184;28;19954;-79
2022/10/26 01:49:13;;;;;;;;;;;;;;;-144.47;100.00;61586.06;4956549;28;19919;-77
2022/10/26 01:51:40;;;;;;;;;;;;;;;-144.47;100.00;61586.06;4956125;28;20271;-79
2022/10/26 01:54:05;;;;;;;;;;;;;;;-144.47;100.00;61586.06;4956157;28;19918;-79
2022/10/26 01:56:33;;;;;;;;;;;;;;;-144.47;100.00;61586.06;4955861;28;19918;-79
2022/10/26 01:59:17;;;;;;;;;;;;;;;-144.47;100.00;61586.06;4956071;28;19962;-79
2022/10/26 02:02:02;;;;;;;;;;;;;;;-144.47;100.00;61586.06;4954625;28;19919;-79
2022/10/26 02:04:30;;;;;;;;;;;;;;;-144.47;100.00;61586.06;4944129;29;19921;-79
2022/10/26 02:07:05;;;;;;;;;;;;;;;-144.47;100.00;61586.06;4943612;29;20350;-78
2022/10/26 02:09:48;;;;;;;;;;;;;;;-144.47;100.00;61586.06;4955725;28;19914;-79
2022/10/26 02:12:21;;;;;;;;;;;;;;;-144.47;100.00;61586.06;4953497;28;19918;-78
2022/10/26 02:14:49;;;;;;;;;;;;;;;-144.47;100.00;61586.06;4955503;28;19918;-79
2022/10/26 02:17:24;;;;;;;;;;;;;;;-144.47;100.00;61586.06;4954916;28;19930;-78
2022/10/26 02:19:52;;;;;;;;;;;;;;;-144.47;100.00;61586.06;4955892;28;19918;-79
2022/10/26 02:22:19;;;;;;;;;;;;;;;-144.47;100.00;61586.06;4943722;28;19941;-79
2022/10/26 02:24:46;;;;;;;;;;;;;;;-144.47;100.00;61586.06;4947353;28;19957;-78
2022/10/26 02:27:15;;;;;;;;;;;;;;;-144.47;100.00;61586.06;4956429;28;20389;-78
2022/10/26 02:29:41;;;;;;;;;;;;;;;-144.47;100.00;61586.06;4955361;28;20413;-79
2022/10/26 02:32:07;;;;;;;;;;;;;;;-144.47;100.00;61586.06;4955154;28;19922;-79
2022/10/26 02:34:35;;;;;;;;;;;;;;;-144.47;100.00;61586.06;4940011;29;19922;-79
2022/10/26 02:37:01;;;;;;;;;;;;;;;-144.47;100.00;61586.06;4955340;28;19954;-78
2022/10/26 02:39:28;;;;;;;;;;;;;;;-144.47;100.00;61586.06;4954986;28;19965;-79
2022/10/26 02:41:54;;;;;;;;;;;;;;;-144.47;100.00;61586.06;4955412;28;19918;-79
2022/10/26 02:44:22;;;;;;;;;;;;;;;-144.47;100.00;61586.06;4955149;28;19981;-78
2022/10/26 02:46:49;;;;;;;;;;;;;;;-144.47;100.00;61586.06;4954830;28;19949;-79
2022/10/26 02:49:14;;;;;;;;;;;;;;;-144.47;100.00;61586.06;4955054;28;19918;-79
2022/10/26 02:51:45;;;;;;;;;;;;;;;-144.47;100.00;61586.06;4942093;29;19925;-78
2022/10/26 02:54:19;;;;;;;;;;;;;;;-144.47;100.00;61586.06;4955114;28;19925;-79
2022/10/26 02:56:50;;;;;;;;;;;;;;;-144.47;100.00;61586.06;4952782;28;19922;-79
2022/10/26 02:59:17;;;;;;;;;;;;;;;-144.47;100.00;61586.06;4954978;28;19961;-79
2022/10/26 03:01:43;;;;;;;;;;;;;;;-144.47;100.00;61586.06;4954472;28;19918;-80
2022/10/26 03:04:08;;;;;;;;;;;;;;;-144.47;100.00;61586.06;4954704;28;19914;-79
2022/10/26 03:06:34;;;;;;;;;;;;;;;-144.47;100.00;61586.06;4954658;28;19933;-79
2022/10/26 03:08:59;;;;;;;;;;;;;;;-144.47;100.00;61586.06;4941583;29;19918;-79
2022/10/26 03:11:26;;;;;;;;;;;;;;;-144.47;100.00;61586.06;4954733;28;19949;-78
2022/10/26 03:13:51;;;;;;;;;;;;;;;-144.47;100.00;61586.06;4954197;28;20406;-79
2022/10/26 03:16:16;;;;;;;;;;;;;;;-144.47;100.00;61586.06;4954215;28;19923;-78
2022/10/26 03:18:42;;;;;;;;;;;;;;;-144.47;100.00;61586.06;4954738;28;19973;-79
2022/10/26 03:21:07;;;;;;;;;;;;;;;-144.47;100.00;61586.06;4943037;29;19926;-79
2022/10/26 03:23:33;;;;;;;;;;;;;;;-144.47;100.00;61586.06;4954133;28;19918;-79
2022/10/26 03:25:58;;;;;;;;;;;;;;;-144.47;100.00;61586.06;4954660;28;20302;-79
2022/10/26 03:28:24;;;;;;;;;;;;;;;-144.47;100.00;61586.06;4954481;28;19925;-79
2022/10/26 03:30:49;;;;;;;;;;;;;;;-144.47;100.00;61586.06;4954552;28;19919;-79
2022/10/26 03:33:14;;;;;;;;;;;;;;;-144.47;100.00;61586.06;4953641;28;19978;-79
2022/10/26 03:35:40;;;;;;;;;;;;;;;-144.47;100.00;61586.06;4954105;28;19919;-79
2022/10/26 03:38:05;;;;;;;;;;;;;;;-144.47;100.00;61586.06;4954372;28;19918;-78
2022/10/26 03:40:30;;;;;;;;;;;;;;;-144.47;100.00;61586.06;4956346;28;19918;-78
2022/10/26 03:42:56;;;;;;;;;;;;;;;-144.47;100.00;61586.06;4941773;29;19925;-79
2022/10/26 03:45:21;;;;;;;;;;;;;;;-144.47;100.00;61586.06;4953969;28;19918;-79
2022/10/26 03:47:47;;;;;;;;;;;;;;;-144.47;100.00;61586.06;4941844;28;20008;-79
2022/10/26 03:50:13;;;;;;;;;;;;;;;-144.47;100.00;61586.06;4954080;28;19918;-79
2022/10/26 03:52:39;;;;;;;;;;;;;;;-144.47;100.00;61586.06;4943827;28;19925;-79
2022/10/26 03:55:04;;;;;;;;;;;;;;;-144.47;100.00;61586.06;4954095;28;19923;-78
2022/10/26 03:57:30;;;;;;;;;;;;;;;-144.47;100.00;61586.06;4953788;28;20409;-78
2022/10/26 03:59:55;;;;;;;;;;;;;;;-144.47;100.00;61586.06;4954053;28;19975;-78
2022/10/26 04:02:20;;;;;;;;;;;;;;;-144.47;100.00;61586.06;4942534;29;19918;-78
2022/10/26 04:04:46;;;;;;;;;;;;;;;-144.47;100.00;61586.06;4953519;28;19918;-79
2022/10/26 04:07:11;;;;;;;;;;;;;;;-144.47;100.00;61586.06;4953915;28;20294;-79
2022/10/26 04:09:36;;;;;;;;;;;;;;;-144.47;100.00;61586.06;4957411;28;20386;-79
2022/10/26 04:12:02;;;;;;;;;;;;;;;-144.47;100.00;61586.06;4953739;28;19922;-78
2022/10/26 04:14:27;;;;;;;;;;;;;;;-144.47;100.00;61586.06;4953469;28;19958;-78
2022/10/26 04:16:52;;;;;;;;;;;;;;;-144.47;100.00;61586.06;4953669;28;19918;-79
2022/10/26 04:19:18;;;;;;;;;;;;;;;-144.47;100.00;61586.06;4952979;28;19925;-77
2022/10/26 04:21:43;;;;;;;;;;;;;;;-144.47;100.00;61586.06;4953593;28;20315;-78
2022/10/26 04:24:09;;;;;;;;;;;;;;;-144.47;100.00;61586.06;4953543;28;20268;-79
2022/10/26 04:26:34;;;;;;;;;;;;;;;-144.47;100.00;61586.06;4952627;28;19957;-79
2022/10/26 04:28:59;;;;;;;;;;;;;;;-144.47;100.00;61586.06;4953741;28;20004;-79
2022/10/26 04:31:25;;;;;;;;;;;;;;;-144.47;100.00;61586.06;4953327;28;19926;-78
2022/10/26 04:33:50;;;;;;;;;;;;;;;-144.47;100.00;61586.06;4953363;28;20271;-79
2022/10/26 04:36:15;;;;;;;;;;;;;;;-144.47;100.00;61586.06;4939609;29;20578;-79
2022/10/26 04:38:41;;;;;;;;;;;;;;;-144.47;100.00;61586.06;4953645;28;20358;-78
2022/10/26 04:41:06;;;;;;;;;;;;;;;-144.47;100.00;61586.06;4943326;28;19941;-78
2022/10/26 04:43:31;;;;;;;;;;;;;;;-144.47;100.00;61586.06;4953205;28;20771;-78
2022/10/26 04:45:57;;;;;;;;;;;;;;;-144.47;100.00;61586.06;4953343;28;20260;-78
2022/10/26 04:48:22;;;;;;;;;;;;;;;-144.47;100.00;61586.06;4952925;28;19925;-79
2022/10/26 04:50:48;;;;;;;;;;;;;;;-144.47;100.00;61586.06;4953308;28;19925;-78
2022/10/26 04:53:13;;;;;;;;;;;;;;;-144.47;100.00;61586.06;4952732;28;19925;-86
2022/10/26 04:55:39;;;;;;;;;;;;;;;-144.47;100.00;61586.06;4954878;28;19977;-91
2022/10/26 04:58:04;;;;;;;;;;;;;;;-144.47;100.00;61586.06;4952041;28;19933;-91
2022/10/26 05:00:31;;;;;;;;;;;;;;;-144.47;100.00;61586.06;4955395;28;19982;-92
2022/10/26 05:03:00;;;;;;;;;;;;;;;-144.47;100.00;61586.06;4956103;28;19961;-90
2022/10/26 05:05:25;;;;;;;;;;;;;;;-144.47;100.00;61586.06;4955355;28;19919;-94
2022/10/26 05:07:55;;;;;;;;;;;;;;;-144.47;100.00;61586.06;4955728;29;19918;-92
2022/10/26 05:10:20;;;;;;;;;;;;;;;-144.47;100.00;61586.06;4961636;28;19918;-92
2022/10/26 05:12:52;;;;;;;;;;;;;;;-144.47;100.00;61586.06;4947159;29;19918;-91
2022/10/26 05:15:18;;;;;;;;;;;;;;;-144.47;100.00;61586.06;4956663;28;19918;-92
2022/10/26 05:17:43;;;;;;;;;;;;;;;-144.47;100.00;61586.06;4960649;28;19929;-93
2022/10/26 05:20:12;;;;;;;;;;;;;;;-144.47;100.00;61586.06;4959440;28;19922;-91
2022/10/26 05:22:37;;;;;;;;;;;;;;;-144.47;100.00;61586.06;4962342;28;19923;-94
2022/10/26 05:25:03;;;;;;;;;;;;;;;-144.47;100.00;61586.06;4969585;29;19921;-92
2022/10/26 05:27:28;;;;;;;;;;;;;;;-144.47;100.00;61586.06;4958566;28;21161;-91
2022/10/26 05:29:53;;;;;;;;;;;;;;;-144.47;100.00;61586.06;4957909;28;20005;-90
2022/10/26 05:32:19;;;;;;;;;;;;;;;-144.47;100.00;61586.06;4963497;29;19914;-89
2022/10/26 05:34:44;;;;;;;;;;;;;;;-144.47;100.00;61586.06;4958891;28;20061;-85
2022/10/26 05:37:10;;;;;;;;;;;;;;;-144.47;100.00;61586.06;4954702;28;20306;-86
2022/10/26 05:39:35;;;;;;;;;;;;;;;-144.47;100.00;61586.06;4963022;28;19919;-87
2022/10/26 05:42:00;;;;;;;;;;;;;;;-144.47;100.00;61586.06;4958660;29;19925;-88
2022/10/26 05:44:26;;;;;;;;;;;;;;;-144.47;100.00;61586.06;4957225;28;19925;-93
2022/10/26 05:46:52;;;;;;;;;;;;;;;-144.47;100.00;61586.06;4958224;28;19926;-90
2022/10/26 05:49:18;;;;;;;;;;;;;;;-144.47;100.00;61586.06;4955012;28;19981;-83
2022/10/26 05:51:44;;;;;;;;;;;;;;;-144.47;100.00;61586.06;4956808;28;20374;-85
2022/10/26 05:54:09;;;;;;;;;;;;;;;-144.47;100.00;61586.06;4957648;28;19918;-84
2022/10/26 05:56:39;;;;;;;;;;;;;;;-144.47;100.00;61586.06;4956020;28;20021;-83
2022/10/26 05:59:10;;;;;;;;;;;;;;;-144.47;100.00;61586.06;4953649;28;21672;-83
2022/10/26 06:01:41;;;;;;;;;;;;;;;-144.47;100.00;61586.06;4955662;28;19926;-80
2022/10/26 06:04:14;;;;;;;;;;;;;;;-144.47;100.00;61586.06;4952341;28;19938;-83
2022/10/26 06:06:43;;;;;;;;;;;;;;;-144.47;100.00;61586.06;4952661;28;20409;-81
2022/10/26 06:09:12;;;;;;;;;;;;;;;-144.47;100.00;61586.06;4958210;28;19922;-84
2022/10/26 06:11:37;;;;;;;;;;;;;;;-144.47;100.00;61586.06;4952024;28;20402;-81
2022/10/26 06:14:03;;;;;;;;;;;;;;;-144.47;100.00;61586.06;4955078;28;19918;-81
2022/10/26 06:16:34;;;;;;;;;;;;;;;-144.47;100.00;61586.06;4954246;28;19925;-82
2022/10/26 06:19:14;;;;;;;;;;;;;;;-144.47;100.00;61586.06;4955102;28;20683;-82
2022/10/26 06:21:39;;;;;;;;;;;;;;;-144.47;100.00;61586.06;4954657;28;19990;-81
2022/10/26 06:24:04;;;;;;;;;;;;;;;-144.47;100.00;61586.06;4954181;28;20347;-83
2022/10/26 06:26:52;;;;;;;;;;;;;;;-144.47;100.00;61586.06;4954033;28;19921;-82
2022/10/26 06:29:23;;;;;;;;;;;;;;;-144.47;100.00;61586.06;4952285;28;20450;-83
2022/10/26 06:31:49;;;;;;;;;;;;;;;-144.47;100.00;61586.06;4954498;28;19968;-83
2022/10/26 06:34:20;;;;;;;;;;;;;;;-144.47;100.00;61586.06;4954045;28;19962;-84
2022/10/26 06:36:46;;;;;;;;;;;;;;;-144.47;100.00;61586.06;4954348;28;19923;-82
2022/10/26 06:39:13;;;;;;;;;;;;;;;-144.47;100.00;61586.06;4954201;28;19918;-83
2022/10/26 06:41:38;;;;;;;;;;;;;;;-144.47;100.00;61586.06;4953922;28;20375;-83
2022/10/26 06:44:04;;;;;;;;;;;;;;;-144.47;100.00;61586.06;4954110;28;20184;-83
2022/10/26 06:46:47;;;;;;;;;;;;;;;-144.47;100.00;61586.06;4953588;28;19933;-84
2022/10/26 06:49:12;;;;;;;;;;;;;;;-144.47;100.00;61586.06;4950070;28;19945;-81
2022/10/26 06:51:58;;;;;;;;;;;;;;;-144.47;100.00;61586.06;4953708;28;20009;-81
2022/10/26 06:54:44;;;;;;;;;;;;;;;-144.47;100.00;61586.06;4953259;28;19918;-81
2022/10/26 06:57:11;;;;;;;;;;;;;;;-144.47;100.00;61586.06;4953600;28;20439;-83
2022/10/26 07:00:12;;;;;;;;;;;;;;;-144.47;100.00;61586.06;4956494;28;19918;-82
2022/10/26 07:02:37;;;;;;;;;;;;;;;-144.47;100.00;61586.06;4875377;29;20368;-82
2022/10/26 07:05:03;;;;;;;;;;;;;;;-144.47;100.00;61586.06;4894492;29;19971;-82
2022/10/26 07:07:29;;;;;;;;;;;;;;;-144.47;100.00;61586.06;4878452;29;19927;-80
2022/10/26 07:09:55;;;;;;;;;;;;;;;-144.47;100.00;61586.06;4894759;29;20005;-79
2022/10/26 07:12:20;;;;;;;;;;;;;;;-144.47;100.00;61586.06;4893956;29;19923;-83
2022/10/26 07:14:45;;;;;;;;;;;;;;;-144.47;100.00;61586.06;4893194;29;19926;-80
2022/10/26 07:17:11;;;;;;;;;;;;;;;-144.47;100.00;61586.06;4856562;29;1132678;-79
2022/10/26 07:19:36;;;;;;;;;;;;;;;-144.47;100.00;61586.06;4895264;29;20048;-80
2022/10/26 07:22:02;;;;;;;;;;;;;;;-144.47;100.00;61586.06;4894911;29;19919;-80
2022/10/26 07:24:27;;;;;;;;;;;;;;;-144.47;100.00;61586.06;4894482;29;19923;-80
2022/10/26 07:26:54;;;;;;;;;;;;;;;-144.47;100.00;61586.06;4894341;29;20116;-80
2022/10/26 07:29:19;;;;;;;;;;;;;;;-144.47;100.00;61586.06;4878866;29;19926;-81
2022/10/26 07:31:44;;;;;;;;;;;;;;;-144.47;100.00;61586.06;4892230;29;20014;-81
2022/10/26 07:34:10;;;;;;;;;;;;;;;-144.47;100.00;61586.06;4894674;29;19924;-80
2022/10/26 07:36:38;;;;;;;;;;;;;;;-144.47;100.00;61586.06;4923737;29;19953;-81
2022/10/26 07:39:04;;;;;;;;;;;;;;;-144.47;100.00;61586.06;4954083;28;19922;-82
2022/10/26 07:41:29;;;;;;;;;;;;;;;-144.47;100.00;61586.06;4953900;28;19930;-81
2022/10/26 07:43:55;;;;;;;;;;;;;;;-144.47;100.00;61586.06;4953883;28;19982;-80
2022/10/26 07:46:20;;;;;;;;;;;;;;;-144.47;100.00;61586.06;4952936;29;19930;-81
2022/10/26 07:48:46;;;;;;;;;;;;;;;-144.47;100.00;61586.06;4954170;28;19925;-81
2022/10/26 07:51:11;;;;;;;;;;;;;;;-144.47;100.00;61586.06;4954123;28;20359;-83
2022/10/26 07:53:37;;;;;;;;;;;;;;;-144.47;100.00;61586.06;4953369;28;20295;-80
2022/10/26 07:56:02;;;;;;;;;;;;;;;-144.47;100.00;61586.06;4953983;28;19925;-83
2022/10/26 07:58:28;;;;;;;;;;;;;;;-144.47;100.00;61586.06;4953181;28;20337;-83
2022/10/26 08:00:54;;;;;;;;;;;;;;;-144.47;100.00;61586.06;4953184;28;19918;-85
2022/10/26 08:03:19;;;;;;;;;;;;;;;-144.47;100.00;61586.06;4951252;28;19926;-87
2022/10/26 08:05:46;;;;;;;;;;;;;;;-144.47;100.00;61586.06;4951449;28;20009;-86
2022/10/26 08:08:12;;;;;;;;;;;;;;;-144.47;100.00;61586.06;4953377;28;19925;-86
2022/10/26 08:10:40;;;;;;;;;;;;;;;-144.47;100.00;61586.06;4940180;29;20021;-89
2022/10/26 08:13:06;;;;;;;;;;;;;;;-144.47;100.00;61586.06;4953629;28;20031;-86
2022/10/26 08:15:31;;;;;;;;;;;;;;;-144.47;100.00;61586.06;4952425;28;19944;-84
2022/10/26 08:17:56;;;;;;;;;;;;;;;-144.47;100.00;61586.06;4953510;28;19918;-85
2022/10/26 08:20:22;;;;;;;;;;;;;;;-144.47;100.00;61586.06;4957488;28;19918;-82
2022/10/26 08:22:47;;;;;;;;;;;;;;;-144.47;100.00;61586.06;4940081;29;20426;-84
2022/10/26 08:25:12;;;;;;;;;;;;;;;-144.47;100.00;61586.06;4956671;28;19922;-84
2022/10/26 08:27:38;;;;;;;;;;;;;;;-144.47;100.00;61586.06;4953025;28;19949;-82
2022/10/26 08:30:03;;;;;;;;;;;;;;;-144.47;100.00;61586.06;4952606;28;19961;-82
2022/10/26 08:32:28;;;;;;;;;;;;;;;-144.47;100.00;61586.06;4940130;28;19957;-83
2022/10/26 08:34:54;;;;;;;;;;;;;;;-144.47;100.00;61586.06;4952982;28;20017;-84
2022/10/26 08:37:19;;;;;;;;;;;;;;;-144.47;100.00;61586.06;4952847;28;20349;-84
2022/10/26 08:39:44;;;;;;;;;;;;;;;-144.47;100.00;61586.06;4952748;28;20369;-85
2022/10/26 08:42:13;;;;;;;;;;;;;;;-144.47;100.00;61586.06;4952982;28;19922;-85
2022/10/26 08:44:46;;;;;;;;;;;;;;;-144.47;100.00;61586.06;4952572;28;20017;-83
2022/10/26 08:47:17;;;;;;;;;;;;;;;-144.47;100.00;61586.06;4949750;28;20001;-85
2022/10/26 08:49:43;;;;;;;;;;;;;;;-144.47;100.00;61586.06;4952684;28;20459;-83
2022/10/26 08:52:10;;;;;;;;;;;;;;;-144.47;100.00;61586.06;4952868;28;20045;-83
2022/10/26 08:54:40;;;;;;;;;;;;;;;-144.47;100.00;61586.06;4948733;28;20526;-85
2022/10/26 08:57:21;;;;;;;;;;;;;;;-144.47;100.00;61586.06;4939898;29;19922;-83
2022/10/26 08:59:51;;;;;;;;;;;;;;;-144.47;100.00;61586.06;4949902;28;20263;-81
2022/10/26 09:02:17;;;;;;;;;;;;;;;-144.47;100.00;61586.06;4940792;29;19958;-84
2022/10/26 09:04:43;;;;;;;;;;;;;;;-144.47;100.00;61586.06;4952602;28;20041;-85
2022/10/26 09:07:31;;;;;;;;;;;;;;;-144.47;100.00;61586.06;4951089;28;20367;-83
2022/10/26 09:10:14;;;;;;;;;;;;;;;-144.47;100.00;61586.06;4937512;29;20354;-83
2022/10/26 09:12:46;;;;;;;;;;;;;;;-144.47;100.00;61586.06;4954390;28;19922;-84
2022/10/26 09:15:25;;;;;;;;;;;;;;;-144.47;100.00;61586.06;4956471;28;19918;-83
2022/10/26 09:18:09;;;;;;;;;;;;;;;-144.47;100.00;61586.06;4943022;29;19918;-83
2022/10/26 09:20:53;;;;;;;;;;;;;;;-144.47;100.00;61586.06;4952224;28;20220;-84
2022/10/26 09:23:43;;;;;;;;;;;;;;;-144.47;100.00;61586.06;4953299;28;20338;-81
2022/10/26 09:26:12;;;;;;;;;;;;;;;-144.47;100.00;61586.06;4956737;28;19918;-82
2022/10/26 09:28:39;;;;;;;;;;;;;;;-144.47;100.00;61586.06;4956290;28;20456;-83
2022/10/26 09:31:12;;;;;;;;;;;;;;;-144.47;100.00;61586.06;4955926;28;20391;-83
2022/10/26 09:33:39;;;;;;;;;;;;;;;-144.47;100.00;61586.06;4951498;28;20338;-82
2022/10/26 09:36:18;;;;;;;;;;;;;;;-144.47;100.00;61586.06;4938870;29;19918;-83
2022/10/26 09:38:49;;;;;;;;;;;;;;;-144.47;100.00;61586.06;4953267;28;19962;-82
2022/10/26 09:41:31;;;;;;;;;;;;;;;-144.47;100.00;61586.06;4956588;28;20017;-82
2022/10/26 09:44:11;;;;;;;;;;;;;;;-144.47;100.00;61586.06;4955322;28;19942;-83
2022/10/26 09:46:45;;;;;;;;;;;;;;;-144.47;100.00;61586.06;4955368;28;20379;-83
2022/10/26 09:49:13;;;;;;;;;;;;;;;-144.47;100.00;61586.06;4952212;28;20368;-83
2022/10/26 09:51:41;;;;;;;;;;;;;;;-144.47;100.00;61586.06;4955568;28;19969;-83
2022/10/26 09:54:14;;;;;;;;;;;;;;;-144.47;100.00;61586.06;4955606;28;19923;-83
2022/10/26 09:56:40;;;;;;;;;;;;;;;-144.47;100.00;61586.06;4952547;28;19918;-83
2022/10/26 09:59:06;;;;;;;;;;;;;;;-144.47;100.00;61586.06;4955767;28;19929;-83
2022/10/26 10:01:32;;;;;;;;;;;;;;;-144.47;100.00;61586.06;4955177;28;19918;-83
2022/10/26 10:04:18;;;;;;;;;;;;;;;-144.47;100.00;61586.06;4955740;28;19918;-84
2022/10/26 10:06:45;;;;;;;;;;;;;;;-144.47;100.00;61586.06;4953942;28;20013;-85
2022/10/26 10:09:10;;;;;;;;;;;;;;;-144.47;100.00;61586.06;4943100;29;20364;-83
2022/10/26 10:11:38;;;;;;;;;;;;;;;-144.47;100.00;61586.06;4955347;28;19954;-84
2022/10/26 10:14:07;;;;;;;;;;;;;;;-144.47;100.00;61586.06;4955690;28;19924;-83
2022/10/26 10:16:33;;;;;;;;;;;;;;;-144.47;100.00;61586.06;4954956;28;20040;-84
2022/10/26 10:18:59;;;;;;;;;;;;;;;-144.47;100.00;61586.06;4955498;28;20001;-82
2022/10/26 10:21:35;;;;;;;;;;;;;;;-144.47;100.00;61586.06;4955012;28;19918;-82
2022/10/26 10:24:00;;;;;;;;;;;;;;;-144.47;100.00;61586.06;4953938;28;20017;-82
2022/10/26 10:26:26;;;;;;;;;;;;;;;-144.47;100.00;61586.06;4955335;28;19969;-84
2022/10/26 10:28:56;;;;;;;;;;;;;;;-144.47;100.00;61586.06;4955558;28;19925;-82
2022/10/26 10:31:25;;;;;;;;;;;;;;;-144.47;100.00;61586.06;4955164;28;20360;-84
2022/10/26 10:33:51;;;;;;;;;;;;;;;-144.47;100.00;61586.06;4955193;28;20045;-82
2022/10/26 10:36:20;;;;;;;;;;;;;;;-144.47;100.00;61586.06;4954362;28;19922;-80
2022/10/26 10:38:47;;;;;;;;;;;;;;;-144.47;100.00;61586.06;4954842;28;20001;-81
2022/10/26 10:41:38;;;;;;;;;;;;;;;-144.47;100.00;61586.06;4954685;28;19923;-80
2022/10/26 10:44:04;;;;;;;;;;;;;;;-144.47;100.00;61586.06;4951414;28;19918;-81
2022/10/26 10:46:30;;;;;;;;;;;;;;;-144.47;100.00;61586.06;4954539;28;19934;-79
2022/10/26 10:49:05;;;;;;;;;;;;;;;-144.47;100.00;61586.06;4955043;28;20379;-79
2022/10/26 10:51:36;;;;;;;;;;;;;;;-144.47;100.00;61586.06;4954146;28;19980;-82
2022/10/26 10:54:02;;;;;;;;;;;;;;;-144.47;100.00;61586.06;4954471;28;20369;-81
2022/10/26 10:56:33;;;;;;;;;;;;;;;-144.47;100.00;61586.06;4955038;28;19986;-81
2022/10/26 10:59:17;;;;;;;;;;;;;;;-144.47;100.00;61586.06;4954970;28;19922;-81
2022/10/26 11:01:53;;;;;;;;;;;;;;;-144.47;100.00;61586.06;4953250;28;20009;-80
2022/10/26 11:04:33;;;;;;;;;;;;;;;-144.47;100.00;61586.06;4954434;28;19953;-81
2022/10/26 11:07:00;;;;;;;;;;;;;;;-144.47;100.00;61586.06;4953302;28;19922;-81
2022/10/26 11:09:27;;;;;;;;;;;;;;;-144.47;100.00;61586.06;4953715;28;20379;-81
2022/10/26 11:11:56;;;;;;;;;;;;;;;-144.47;100.00;61586.06;4953971;28;19919;-81
2022/10/26 11:14:27;;;;;;;;;;;;;;;-144.47;100.00;61586.06;4953842;28;19941;-81
2022/10/26 11:17:04;;;;;;;;;;;;;;;-144.47;100.00;61586.06;4954017;28;19957;-81
2022/10/26 11:19:29;;;;;;;;;;;;;;;-144.47;100.00;61586.06;4953321;28;19918;-79
2022/10/26 11:21:55;;;;;;;;;;;;;;;-144.47;100.00;61586.06;4954325;28;20032;-80
2022/10/26 11:24:23;;;;;;;;;;;;;;;-144.47;100.00;61586.06;4953635;28;19925;-80
2022/10/26 11:26:58;;;;;;;;;;;;;;;-144.47;100.00;61586.06;4954738;28;19918;-80
2022/10/26 11:29:45;;;;;;;;;;;;;;;-144.47;100.00;61586.06;4953470;28;19925;-80
2022/10/26 11:32:18;;;;;;;;;;;;;;;-144.47;100.00;61586.06;4950653;28;19918;-80
2022/10/26 11:34:47;;;;;;;;;;;;;;;-144.47;100.00;61586.06;4951002;28;19965;-81
2022/10/26 11:37:22;;;;;;;;;;;;;;;-144.47;100.00;61586.06;4953917;28;19918;-80
2022/10/26 11:40:01;;;;;;;;;;;;;;;-144.47;100.00;61586.06;4951418;28;20367;-81
2022/10/26 11:42:48;;;;;;;;;;;;;;;-144.47;100.00;61586.06;4953652;28;19922;-79
2022/10/26 11:45:14;;;;;;;;;;;;;;;-144.47;100.00;61586.06;4950909;28;19914;-78
2022/10/26 11:47:45;;;;;;;;;;;;;;;-144.47;100.00;61586.06;4953364;28;19919;-80
2022/10/26 11:50:29;;;;;;;;;;;;;;;-144.47;100.00;61586.06;4953008;28;19915;-81
2022/10/26 11:52:59;;;;;;;;;;;;;;;-144.47;100.00;61586.06;4953206;28;19918;-80
2022/10/26 11:55:25;;;;;;;;;;;;;;;-144.47;100.00;61586.06;4953607;28;19968;-82
2022/10/26 11:57:53;;;;;;;;;;;;;;;-144.47;100.00;61586.06;4953454;28;19922;-80
2022/10/26 12:00:20;;;;;;;;;;;;;;;-144.47;100.00;61586.06;4953177;28;20398;-81
2022/10/26 12:02:49;;;;;;;;;;;;;;;-144.47;100.00;61586.06;4953554;28;19929;-81
2022/10/26 12:05:14;;;;;;;;;;;;;;;-144.47;100.00;61586.06;4953382;28;19919;-81
2022/10/26 12:07:43;;;;;;;;;;;;;;;-144.47;100.00;61586.06;4950442;28;19929;-81
2022/10/26 12:10:13;;;;;;;;;;;;;;;-144.47;100.00;61586.06;4948604;28;19919;-77
2022/10/26 12:12:46;;;;;;;;;;;;;;;-144.47;100.00;61586.06;4953594;28;20225;-77
2022/10/26 12:15:24;;;;;;;;;;;;;;;-144.47;100.00;61586.06;4949645;28;19925;-80
2022/10/26 12:17:53;;;;;;;;;;;;;;;-144.47;100.00;61586.06;4951646;28;19966;-81
2022/10/26 12:20:34;;;;;;;;;;;;;;;-144.47;100.00;61586.06;4947969;29;19919;-78
2022/10/26 12:22:59;;;;;;;;;;;;;;;-144.47;100.00;61586.06;4952844;28;19918;-79
2022/10/26 12:25:24;;;;;;;;;;;;;;;-144.47;100.00;61586.06;4952786;28;20013;-82
2022/10/26 12:27:54;;;;;;;;;;;;;;;-144.47;100.00;61586.06;4953153;28;20016;-80